Time;durP1;ratioP1;P1;durP2;ratioP2;P2;SDS_P1;SDS_P2;PMS_P1;PMS_P2;Temp;Humidity;BMP_temperature;BMP_pressure;BME280_temperature;BME280_humidity;BME280_pressure;Samples;Min_cycle;Max_cycle;Signal;HPM_P1;HPM_P2
2022/12/25 00:01:58;;;;;;;45.45;15.95;;;;;;;;;;5076802;28;20130;-62
2022/12/25 00:04:24;;;;;;;44.03;16.95;;;;;;;;;;5081461;28;20123;-62
2022/12/25 00:06:49;;;;;;;45.97;16.52;;;6.20;99.90;;;;;;5070063;28;20075;-61
2022/12/25 00:09:15;;;;;;;49.25;16.38;;;6.20;99.90;;;;;;5095629;28;20079;-61
2022/12/25 00:11:40;;;;;;;48.33;17.10;;;6.20;99.90;;;;;;5095942;28;20082;-62
2022/12/25 00:14:06;;;;;;;50.65;17.63;;;;;;;;;;5070175;28;20040;-62
2022/12/25 00:16:32;;;;;;;46.45;17.30;;;;;;;;;;5088667;28;20055;-62
2022/12/25 00:19:00;;;;;;;44.60;15.20;;;;;;;;;;5091508;28;20055;-62
2022/12/25 00:21:26;;;;;;;40.85;14.73;;;6.20;99.90;;;;;;5090990;28;20511;-62
2022/12/25 00:23:56;;;;;;;46.92;16.42;;;6.30;99.90;;;;;;5088662;28;20036;-61
2022/12/25 00:26:22;;;;;;;52.63;18.98;;;;;;;;;;5070403;28;20685;-62
2022/12/25 00:28:54;;;;;;;47.88;16.45;;;6.20;99.90;;;;;;5102671;28;20032;-61
2022/12/25 00:31:21;;;;;;;47.03;16.85;;;6.20;99.90;;;;;;5074547;28;20552;-62
2022/12/25 00:33:48;;;;;;;59.35;16.90;;;;;;;;;;5087900;28;20370;-60
2022/12/25 00:36:15;;;;;;;45.65;15.43;;;;;;;;;;5102293;28;20477;-62
2022/12/25 00:38:41;;;;;;;50.65;15.55;;;6.20;99.90;;;;;;5052658;28;20059;-61
2022/12/25 00:41:12;;;;;;;52.55;15.90;;;6.20;99.90;;;;;;5069728;28;20147;-62
2022/12/25 00:43:40;;;;;;;46.75;16.33;;;;;;;;;;5069142;28;20055;-62
2022/12/25 00:46:06;;;;;;;56.80;17.65;;;6.10;99.90;;;;;;5065586;28;20055;-61
2022/12/25 00:48:33;;;;;;;45.90;15.90;;;;;;;;;;5087285;28;20538;-62
2022/12/25 00:51:02;;;;;;;51.08;17.15;;;6.10;99.90;;;;;;5069083;28;20044;-62
2022/12/25 00:53:29;;;;;;;49.53;16.65;;;;;;;;;;5087356;28;20044;-62
2022/12/25 00:55:59;;;;;;;47.70;16.55;;;;;;;;;;5100809;28;20039;-61
2022/12/25 00:58:27;;;;;;;55.28;16.80;;;;;;;;;;5105752;28;20035;-60
2022/12/25 01:00:53;;;;;;;71.38;17.02;;;;;;;;;;5087396;28;20109;-62
2022/12/25 01:03:19;;;;;;;52.70;16.40;;;;;;;;;;5090776;28;20036;-61
2022/12/25 01:05:53;;;;;;;72.57;18.02;;;;;;;;;;5091121;28;20448;-61
2022/12/25 01:08:19;;;;;;;66.35;17.52;;;;;;;;;;5093399;28;20142;-61
2022/12/25 01:10:52;;;;;;;52.50;16.75;;;;;;;;;;5090739;28;20406;-62
2022/12/25 01:13:18;;;;;;;52.90;17.95;;;;;;;;;;5091079;28;20508;-62
2022/12/25 01:15:44;;;;;;;54.58;18.50;;;;;;;;;;5087596;28;20051;-62
2022/12/25 01:18:10;;;;;;;46.45;16.85;;;;;;;;;;5090653;28;20461;-62
2022/12/25 01:20:35;;;;;;;49.58;17.08;;;6.20;99.90;;;;;;5072061;28;20043;-62
2022/12/25 01:23:01;;;;;;;51.45;18.42;;;6.40;99.90;;;;;;5090516;28;20028;-62
2022/12/25 01:25:26;;;;;;;53.00;19.42;;;6.50;99.90;;;;;;5090299;28;20108;-62
2022/12/25 01:27:52;;;;;;;58.65;19.55;;;;;;;;;;5090219;28;20036;-62
2022/12/25 01:30:18;;;;;;;50.22;19.88;;;;;;;;;;5090385;28;20043;-60
2022/12/25 01:32:44;;;;;;;53.60;19.15;;;;;;;;;;5068731;28;20082;-62
2022/12/25 01:35:10;;;;;;;51.75;18.27;;;;;;;;;;5072077;28;20491;-62
2022/12/25 01:37:36;;;;;;;52.13;18.42;;;6.60;99.90;;;;;;5072138;28;20073;-62
2022/12/25 01:40:02;;;;;;;44.55;17.27;;;6.70;99.90;;;;;;5075056;28;20039;-61
2022/12/25 01:42:28;;;;;;;52.33;21.50;;;;;;;;;;5092557;28;20044;-62
2022/12/25 01:44:54;;;;;;;52.30;20.52;;;;;;;;;;5095061;28;20040;-62
2022/12/25 01:47:20;;;;;;;54.45;20.20;;;;;;;;;;5087152;28;20298;-61
2022/12/25 01:49:49;;;;;;;65.55;21.10;;;;;;;;;;5077533;28;20123;-62
2022/12/25 01:52:19;;;;;;;61.03;21.27;;;6.80;99.90;;;;;;5086997;28;20422;-62
2022/12/25 01:54:58;;;;;;;50.20;20.08;;;6.60;99.90;;;;;;5076916;28;20036;-62
2022/12/25 01:57:26;;;;;;;54.13;18.77;;;;;;;;;;5082242;28;20051;-62
2022/12/25 01:59:53;;;;;;;53.15;20.98;;;6.60;99.90;;;;;;5075141;28;20401;-62
2022/12/25 02:02:20;;;;;;;61.70;22.17;;;;;;;;;;5101054;28;20042;-62
2022/12/25 02:04:49;;;;;;;62.95;21.40;;;;;;;;;;5086923;28;20076;-62
2022/12/25 02:07:20;;;;;;;69.72;22.45;;;;;;;;;;5100698;28;20032;-62
2022/12/25 02:09:46;;;;;;;49.42;19.90;;;;;;;;;;5098091;28;20052;-61
2022/12/25 02:12:16;;;;;;;51.83;20.55;;;;;;;;;;5089760;28;20032;-60
2022/12/25 02:14:42;;;;;;;59.85;21.13;;;6.70;99.90;;;;;;5096864;28;20152;-61
2022/12/25 02:17:24;;;;;;;57.28;20.30;;;;;;;;;;5074226;28;20127;-61
2022/12/25 02:20:16;;;;;;;56.15;20.20;;;;;;;;;;5078406;28;20047;-62
2022/12/25 02:22:51;;;;;;;59.65;20.77;;;;;;;;;;5078404;28;20515;-61
2022/12/25 02:25:30;;;;;;;63.88;21.42;;;6.80;99.90;;;;;;5110906;28;20047;-60
2022/12/25 02:28:06;;;;;;;55.80;21.25;;;;;;;;;;5059108;28;20075;-61
2022/12/25 02:30:36;;;;;;;55.35;20.27;;;;;;;;;;5090352;28;20194;-62
2022/12/25 02:35:54;;;;;;;75.65;23.42;;;7.20;99.90;;;;;;5074439;28;20091;-63
2022/12/25 02:39:56;;;;;;;53.55;22.00;;;;;;;;;;5102873;28;20039;-62
2022/12/25 02:41:36;;;;;;;57.35;22.05;;;7.30;99.90;;;;;;5076624;28;20048;-61
2022/12/25 03:06:41;;;;;;;66.03;22.67;;;;;;;;;;5085460;28;20052;-62
2022/12/25 03:12:17;;;;;;;69.82;24.80;;;;;;;;;;5089919;28;20048;-62
2022/12/25 03:17:30;;;;;;;54.05;20.73;;;;;;;;;;5092450;28;20075;-62
2022/12/25 03:28:12;;;;;;;55.80;21.23;;;;;;;;;;5098821;28;20469;-63
2022/12/25 03:31:12;;;;;;;53.80;20.38;;;;;;;;;;5094967;28;20471;-62
2022/12/25 03:36:44;;;;;;;64.70;21.40;;;;;;;;;;5059789;28;20441;-62
2022/12/25 04:37:18;;;;;;;55.15;22.20;;;;;;;;;;5067347;28;20358;-62
2022/12/25 04:39:44;;;;;;;58.90;22.42;;;;;;;;;;5053382;28;20559;-62
2022/12/25 04:42:10;;;;;;;66.28;21.85;;;;;;;;;;5066069;28;20482;-62
2022/12/25 04:44:35;;;;;;;61.60;22.25;;;8.30;99.90;;;;;;5066237;28;20117;-62
2022/12/25 04:47:01;;;;;;;56.40;21.23;;;;;;;;;;5079641;28;20482;-62
2022/12/25 04:49:27;;;;;;;61.47;23.00;;;;;;;;;;5066976;28;20063;-62
2022/12/25 04:51:53;;;;;;;58.63;22.02;;;;;;;;;;5064824;28;20052;-62
2022/12/25 04:54:19;;;;;;;63.08;24.17;;;;;;;;;;5057993;28;20035;-62
2022/12/25 04:56:45;;;;;;;63.13;24.45;;;;;;;;;;5075676;28;20133;-62
2022/12/25 04:59:11;;;;;;;72.28;24.67;;;;;;;;;;5078427;28;20047;-62
2022/12/25 05:01:37;;;;;;;62.88;22.55;;;;;;;;;;5081586;28;20051;-63
2022/12/25 05:04:03;;;;;;;63.38;24.55;;;;;;;;;;5077689;28;20044;-62
2022/12/25 05:06:29;;;;;;;68.82;22.83;;;;;;;;;;5082921;28;20044;-63
2022/12/25 05:08:55;;;;;;;61.38;24.15;;;;;;;;;;5068236;28;20089;-62
2022/12/25 05:11:21;;;;;;;72.95;26.55;;;8.40;99.90;;;;;;5070962;28;20044;-62
2022/12/25 05:13:47;;;;;;;57.75;24.50;;;;;;;;;;5070518;28;20486;-62
2022/12/25 05:16:15;;;;;;;65.07;24.30;;;;;;;;;;5078852;28;20051;-63
2022/12/25 05:18:41;;;;;;;62.85;24.48;;;;;;;;;;5081377;28;20048;-61
2022/12/25 05:21:07;;;;;;;61.15;24.13;;;;;;;;;;5077069;28;20047;-63
2022/12/25 05:23:33;;;;;;;62.50;23.73;;;;;;;;;;5074460;28;20048;-62
2022/12/25 05:25:59;;;;;;;65.82;25.10;;;;;;;;;;5077530;28;20490;-62
2022/12/25 05:28:25;;;;;;;63.78;24.60;;;;;;;;;;5065563;28;20056;-63
2022/12/25 05:30:51;;;;;;;68.68;24.75;;;;;;;;;;5082134;28;20063;-62
2022/12/25 05:33:17;;;;;;;72.53;24.52;;;;;;;;;;5096838;28;20109;-61
2022/12/25 05:35:43;;;;;;;66.22;23.88;;;;;;;;;;5068690;28;20048;-62
2022/12/25 05:38:09;;;;;;;65.53;23.52;;;;;;;;;;5068655;28;20484;-62
2022/12/25 05:40:39;;;;;;;72.45;25.20;;;;;;;;;;5077820;28;20046;-62
2022/12/25 05:43:04;;;;;;;74.75;27.35;;;;;;;;;;5088146;28;20040;-63
2022/12/25 05:45:31;;;;;;;72.55;24.95;;;;;;;;;;5074049;28;20059;-63
2022/12/25 05:47:57;;;;;;;66.28;26.73;;;;;;;;;;5086418;28;20325;-63
2022/12/25 05:50:23;;;;;;;67.38;26.40;;;;;;;;;;5071673;28;20474;-63
2022/12/25 05:52:49;;;;;;;72.15;25.98;;;;;;;;;;5099953;28;20773;-62
2022/12/25 05:55:15;;;;;;;78.05;27.38;;;;;;;;;;5090133;28;20040;-61
2022/12/25 05:57:41;;;;;;;77.57;27.35;;;;;;;;;;5072506;28;20062;-63
2022/12/25 06:00:08;;;;;;;75.53;27.50;;;;;;;;;;5105184;28;20046;-63
2022/12/25 06:02:37;;;;;;;81.47;29.52;;;;;;;;;;5097067;28;20161;-62
2022/12/25 06:05:03;;;;;;;68.68;23.67;;;;;;;;;;5106243;28;20412;-62
2022/12/25 06:07:30;;;;;;;71.22;24.30;;;;;;;;;;5082563;28;20056;-63
2022/12/25 06:09:56;;;;;;;67.90;26.95;;;;;;;;;;5087041;28;20051;-63
2022/12/25 06:12:22;;;;;;;69.88;24.33;;;;;;;;;;5090030;28;20047;-63
2022/12/25 06:14:47;;;;;;;70.55;27.15;;;;;;;;;;5109185;28;20104;-63
2022/12/25 06:17:13;;;;;;;65.50;26.17;;;;;;;;;;5106690;28;20044;-62
2022/12/25 06:19:41;;;;;;;70.85;26.92;;;;;;;;;;5104719;28;20040;-63
2022/12/25 06:22:07;;;;;;;71.00;26.95;;;;;;;;;;5089428;28;20093;-64
2022/12/25 06:24:33;;;;;;;65.90;24.80;;;;;;;;;;5088104;28;20099;-62
2022/12/25 06:27:00;;;;;;;57.40;25.17;;;;;;;;;;5097349;28;20051;-64
2022/12/25 06:29:26;;;;;;;62.75;24.38;;;;;;;;;;5068581;28;20139;-63
2022/12/25 06:31:55;;;;;;;65.90;25.98;;;;;;;;;;5098178;28;20147;-63
2022/12/25 06:34:22;;;;;;;59.85;25.05;;;;;;;;;;5084006;28;20054;-63
2022/12/25 06:36:48;;;;;;;60.67;24.27;;;;;;;;;;5089450;28;20131;-62
2022/12/25 06:39:13;;;;;;;57.78;25.08;;;;;;;;;;5085285;28;20067;-63
2022/12/25 06:41:39;;;;;;;53.25;22.25;;;;;;;;;;5108536;28;20054;-64
2022/12/25 06:44:05;;;;;;;63.05;25.10;;;;;;;;;;5086481;28;20118;-63
2022/12/25 06:46:32;;;;;;;56.60;23.67;;;;;;;;;;5105017;28;20047;-62
2022/12/25 06:48:59;;;;;;;62.00;23.40;;;;;;;;;;5088695;28;20039;-62
2022/12/25 06:51:28;;;;;;;52.80;22.55;;;9.00;99.90;;;;;;5103660;28;20524;-62
2022/12/25 06:53:54;;;;;;;56.45;22.83;;;;;;;;;;5106845;28;20043;-63
2022/12/25 06:56:23;;;;;;;51.70;20.80;;;9.10;99.90;;;;;;5082895;28;20058;-63
2022/12/25 06:58:54;;;;;;;56.78;21.65;;;9.10;99.90;;;;;;5091607;28;20048;-62
2022/12/25 07:01:30;;;;;;;56.17;21.17;;;;;;;;;;5101008;28;20027;-62
2022/12/25 07:03:58;;;;;;;46.85;21.02;;;9.10;99.90;;;;;;5108560;28;20039;-62
2022/12/25 07:06:24;;;;;;;50.10;19.67;;;;;;;;;;5108850;28;20039;-62
2022/12/25 07:08:50;;;;;;;41.72;19.95;;;;;;;;;;5103558;28;20120;-62
2022/12/25 07:11:16;;;;;;;47.45;19.35;;;;;;;;;;5074248;28;20036;-63
2022/12/25 07:13:42;;;;;;;41.95;19.52;;;;;;;;;;5074055;28;20040;-63
2022/12/25 07:16:09;;;;;;;46.38;19.00;;;;;;;;;;5092233;28;20065;-63
2022/12/25 07:18:35;;;;;;;44.30;18.38;;;;;;;;;;5068995;28;20049;-63
2022/12/25 07:21:08;;;;;;;41.72;19.65;;;;;;;;;;5093929;28;20040;-63
2022/12/25 07:23:35;;;;;;;41.88;18.30;;;;;;;;;;5082810;28;20382;-63
2022/12/25 07:26:01;;;;;;;37.85;17.67;;;;;;;;;;5095171;28;20044;-63
2022/12/25 07:28:28;;;;;;;46.00;17.85;;;9.20;99.90;;;;;;5084892;28;20572;-63
2022/12/25 07:30:53;;;;;;;36.70;17.33;;;9.20;99.90;;;;;;5090931;28;20056;-64
2022/12/25 07:33:19;;;;;;;41.80;17.15;;;;;;;;;;5088777;28;20032;-63
2022/12/25 07:35:45;;;;;;;42.70;18.02;;;;;;;;;;5088317;28;20059;-63
2022/12/25 07:38:12;;;;;;;43.88;16.70;;;;;;;;;;5079931;28;20075;-61
2022/12/25 07:40:37;;;;;;;45.53;18.33;;;8.90;99.90;;;;;;5095730;28;20049;-64
2022/12/25 07:43:03;;;;;;;37.70;16.90;;;;;;;;;;5094172;28;20035;-63
2022/12/25 07:45:29;;;;;;;34.97;16.98;;;;;;;;;;5067232;28;20055;-61
2022/12/25 07:47:55;;;;;;;36.75;17.10;;;;;;;;;;5100427;28;20035;-62
2022/12/25 07:50:21;;;;;;;37.30;16.02;;;;;;;;;;5072410;28;20044;-63
2022/12/25 07:52:47;;;;;;;32.25;16.27;;;;;;;;;;5106364;28;20044;-63
2022/12/25 07:55:13;;;;;;;31.27;14.95;;;9.10;99.90;;;;;;5105287;28;20044;-62
2022/12/25 07:57:39;;;;;;;35.70;15.52;;;;;;;;;;5088232;28;20119;-64
2022/12/25 08:00:06;;;;;;;31.92;15.65;;;;;;;;;;5093758;28;20466;-62
2022/12/25 08:02:32;;;;;;;31.92;16.63;;;;;;;;;;5104778;28;20126;-61
2022/12/25 08:04:58;;;;;;;29.33;15.85;;;;;;;;;;5106518;28;20050;-64
2022/12/25 08:07:26;;;;;;;32.53;15.68;;;;;;;;;;5085850;28;20048;-64
2022/12/25 08:09:52;;;;;;;33.65;15.10;;;;;;;;;;5105002;28;20039;-63
2022/12/25 08:12:18;;;;;;;31.75;15.82;;;;;;;;;;5086868;28;20781;-64
2022/12/25 08:14:43;;;;;;;35.88;16.27;;;9.10;99.90;;;;;;5104832;28;20035;-62
2022/12/25 08:17:09;;;;;;;33.13;14.63;;;;;;;;;;5084988;28;20047;-62
2022/12/25 08:19:35;;;;;;;30.42;15.00;;;;;;;;;;5101614;28;20127;-64
2022/12/25 08:22:01;;;;;;;31.27;15.43;;;;;;;;;;5085713;28;20047;-63
2022/12/25 08:24:27;;;;;;;31.15;14.25;;;;;;;;;;5105239;28;20131;-61
2022/12/25 08:26:53;;;;;;;29.23;14.80;;;9.00;99.90;;;;;;5087169;28;20043;-63
2022/12/25 08:29:19;;;;;;;33.30;14.68;;;;;;;;;;5084999;28;20445;-64
2022/12/25 08:31:45;;;;;;;31.00;14.50;;;;;;;;;;5085326;28;20044;-63
2022/12/25 08:34:11;;;;;;;31.33;14.45;;;;;;;;;;5098157;28;20064;-65
2022/12/25 08:36:38;;;;;;;29.98;14.43;;;;;;;;;;5077913;28;20367;-61
2022/12/25 08:39:04;;;;;;;23.65;12.38;;;9.10;99.90;;;;;;5097987;28;20085;-63
2022/12/25 08:41:30;;;;;;;24.00;12.85;;;;;;;;;;5089201;28;20570;-63
2022/12/25 08:43:57;;;;;;;35.50;15.10;;;;;;;;;;5067771;28;20048;-62
2022/12/25 08:46:23;;;;;;;26.02;12.95;;;;;;;;;;5098373;28;20432;-63
2022/12/25 08:48:49;;;;;;;23.60;13.13;;;;;;;;;;5099484;28;20580;-62
2022/12/25 08:51:17;;;;;;;28.00;13.52;;;9.00;99.90;;;;;;5083547;28;20108;-63
2022/12/25 08:53:44;;;;;;;26.00;12.88;;;9.10;99.90;;;;;;5100309;28;20036;-64
2022/12/25 08:56:10;;;;;;;26.90;12.90;;;;;;;;;;5098445;28;20041;-62
2022/12/25 08:58:36;;;;;;;27.35;12.75;;;;;;;;;;5099705;28;20058;-61
2022/12/25 09:01:02;;;;;;;30.10;13.05;;;;;;;;;;5087702;28;20031;-62
2022/12/25 09:03:31;;;;;;;20.55;11.90;;;8.90;99.90;;;;;;5078276;28;20036;-62
2022/12/25 09:06:01;;;;;;;20.48;10.82;;;;;;;;;;5080499;28;20097;-62
2022/12/25 09:08:27;;;;;;;25.13;11.93;;;;;;;;;;5083975;28;20093;-63
2022/12/25 09:10:53;;;;;;;23.73;11.25;;;;;;;;;;5084255;28;20776;-60
2022/12/25 09:13:18;;;;;;;20.83;11.75;;;9.10;99.90;;;;;;5086940;28;20035;-62
2022/12/25 09:15:44;;;;;;;23.60;10.27;;;;;;;;;;5097027;28;20533;-62
2022/12/25 09:18:10;;;;;;;21.60;11.27;;;;;;;;;;5082000;28;20466;-62
2022/12/25 09:20:36;;;;;;;23.92;11.38;;;;;;;;;;5088948;28;20560;-61
2022/12/25 09:23:02;;;;;;;24.73;10.73;;;;;;;;;;5074539;28;20176;-62
2022/12/25 09:25:28;;;;;;;25.10;10.38;;;;;;;;;;5086428;28;20502;-63
2022/12/25 09:27:55;;;;;;;20.90;10.10;;;9.00;99.90;;;;;;5097517;28;20074;-59
2022/12/25 09:30:21;;;;;;;21.55;10.70;;;;;;;;;;5068933;28;20041;-62
2022/12/25 09:32:47;;;;;;;16.55;11.70;;;9.10;99.90;;;;;;5083018;28;20539;-61
2022/12/25 09:35:16;;;;;;;17.70;10.10;;;;;;;;;;5084227;28;20024;-64
2022/12/25 09:37:42;;;;;;;19.30;10.15;;;;;;;;;;5072264;28;20136;-62
2022/12/25 09:40:14;;;;;;;21.48;9.98;;;9.30;99.90;;;;;;5076766;28;20044;-64
2022/12/25 09:42:40;;;;;;;20.08;9.88;;;9.20;99.90;;;;;;5066371;28;20040;-61
2022/12/25 09:45:27;;;;;;;22.10;9.35;;;;;;;;;;5091185;28;20036;-60
2022/12/25 09:47:55;;;;;;;19.63;11.00;;;;;;;;;;5074425;28;20394;-63
2022/12/25 09:50:40;;;;;;;18.08;9.57;;;;;;;;;;5085219;28;20047;-62
2022/12/25 09:53:12;;;;;;;20.50;9.32;;;;;;;;;;5074745;28;20051;-61
2022/12/25 09:55:42;;;;;;;23.25;11.00;;;;;;;;;;5073659;28;20386;-62
2022/12/25 09:58:12;;;;;;;21.63;10.35;;;9.40;99.90;;;;;;5082949;28;20794;-62
2022/12/25 10:00:40;;;;;;;19.58;10.07;;;;;;;;;;5085222;28;20157;-61
2022/12/25 10:03:13;;;;;;;19.75;9.57;;;;;;;;;;5095036;28;20089;-61
2022/12/25 10:06:00;;;;;;;23.02;10.13;;;9.20;99.90;;;;;;5069311;28;20131;-63
2022/12/25 10:08:41;;;;;;;15.40;9.30;;;;;;;;;;5079185;28;20066;-61
2022/12/25 10:11:10;;;;;;;16.80;10.30;;;;;;;;;;5074885;28;20458;-65
2022/12/25 10:13:50;;;;;;;21.60;10.88;;;;;;;;;;5075604;28;20097;-61
2022/12/25 10:16:35;;;;;;;15.93;9.85;;;;;;;;;;5085952;28;20058;-62
2022/12/25 10:19:20;;;;;;;20.92;9.63;;;;;;;;;;5081798;28;20107;-63
2022/12/25 10:21:48;;;;;;;15.95;9.30;;;;;;;;;;5070866;28;20053;-63
2022/12/25 10:24:23;;;;;;;21.83;10.45;;;;;;;;;;5088607;28;20048;-65
2022/12/25 10:26:50;;;;;;;23.38;9.80;;;;;;;;;;5069027;28;20111;-62
2022/12/25 10:29:20;;;;;;;19.10;9.55;;;9.10;99.90;;;;;;5081794;28;20063;-62
2022/12/25 10:31:48;;;;;;;19.08;9.40;;;9.10;99.90;;;;;;5070706;28;20094;-61
2022/12/25 10:34:14;;;;;;;23.42;10.05;;;;;;;;;;5063684;28;20040;-61
2022/12/25 10:36:41;;;;;;;18.17;10.43;;;;;;;;;;5075503;28;20542;-62
2022/12/25 10:39:06;;;;;;;27.00;10.45;;;9.10;99.90;;;;;;5101347;28;20043;-63
2022/12/25 10:41:51;;;;;;;23.23;9.63;;;;;;;;;;5095589;28;20047;-64
2022/12/25 10:44:19;;;;;;;16.88;9.38;;;9.10;99.90;;;;;;5083297;28;20043;-64
2022/12/25 10:46:50;;;;;;;23.02;10.05;;;;;;;;;;5094734;28;20134;-63
2022/12/25 10:49:18;;;;;;;18.08;9.55;;;8.90;99.90;;;;;;5078107;28;20044;-63
2022/12/25 10:51:44;;;;;;;19.05;9.65;;;;;;;;;;5089170;28;20127;-64
2022/12/25 10:54:33;;;;;;;20.77;10.07;;;9.20;99.90;;;;;;5068200;28;20167;-63
2022/12/25 10:57:01;;;;;;;19.13;9.00;;;;;;;;;;5075705;28;20044;-63
2022/12/25 10:59:28;;;;;;;21.38;9.75;;;;;;;;;;5076508;28;20048;-63
2022/12/25 11:01:55;;;;;;;21.17;9.68;;;;;;;;;;5089018;28;20039;-63
2022/12/25 11:04:24;;;;;;;23.95;9.65;;;;;;;;;;5088425;28;20575;-64
2022/12/25 11:07:05;;;;;;;18.98;9.23;;;;;;;;;;5073396;28;20191;-64
2022/12/25 11:09:32;;;;;;;17.05;8.55;;;;;;;;;;5095077;28;20043;-64
2022/12/25 11:11:59;;;;;;;18.73;9.35;;;9.20;99.90;;;;;;5089677;28;20047;-64
2022/12/25 11:14:26;;;;;;;17.52;8.77;;;;;;;;;;5084977;28;20248;-63
2022/12/25 11:16:53;;;;;;;21.27;9.50;;;;;;;;;;5103973;28;20513;-64
2022/12/25 11:19:29;;;;;;;21.75;8.40;;;;;;;;;;5101018;28;20036;-64
2022/12/25 11:21:56;;;;;;;23.67;9.82;;;;;;;;;;5083238;28;20047;-63
2022/12/25 11:24:26;;;;;;;16.67;8.50;;;;;;;;;;5088090;28;20060;-63
2022/12/25 11:26:54;;;;;;;19.80;8.82;;;9.40;99.90;;;;;;5091912;28;20040;-64
2022/12/25 11:29:35;;;;;;;21.42;9.50;;;;;;;;;;5056933;28;20339;-63
2022/12/25 11:32:02;;;;;;;22.88;9.13;;;;;;;;;;5088463;28;20060;-64
2022/12/25 11:34:30;;;;;;;15.50;7.90;;;;;;;;;;5070590;28;20036;-64
2022/12/25 11:36:58;;;;;;;17.15;8.82;;;9.50;99.90;;;;;;5072940;28;20143;-63
2022/12/25 11:39:27;;;;;;;18.20;9.05;;;;;;;;;;5074528;28;20561;-62
2022/12/25 11:42:02;;;;;;;14.02;7.38;;;9.40;99.90;;;;;;5088278;28;20040;-64
2022/12/25 11:44:33;;;;;;;;;;;9.30;99.90;;;;;;5087416;28;20043;-65
2022/12/25 11:47:00;;;;;;;17.05;8.13;;;;;;;;;;5075049;28;19919;-66
2022/12/25 11:49:27;;;;;;;17.27;8.13;;;;;;;;;;5089064;28;20043;-65
2022/12/25 11:51:55;;;;;;;15.90;8.00;;;9.30;99.90;;;;;;5090478;28;20125;-65
2022/12/25 11:54:24;;;;;;;12.50;7.35;;;;;;;;;;5085856;28;20054;-64
2022/12/25 11:56:50;;;;;;;15.75;7.35;;;9.40;99.90;;;;;;5065584;28;20501;-64
2022/12/25 11:59:16;;;;;;;19.40;7.85;;;;;;;;;;5088226;28;20134;-63
2022/12/25 12:01:51;;;;;;;14.32;8.02;;;;;;;;;;5090772;28;20127;-63
2022/12/25 12:04:19;;;;;;;17.67;7.72;;;;;;;;;;5091444;28;20043;-65
2022/12/25 12:06:55;;;;;;;17.95;7.90;;;9.60;99.90;;;;;;5066365;28;20123;-63
2022/12/25 12:09:37;;;;;;;17.65;7.53;;;9.50;99.90;;;;;;5080266;28;20039;-63
2022/12/25 12:12:22;;;;;;;13.73;7.95;;;9.40;99.90;;;;;;5087320;28;20400;-63
2022/12/25 12:14:48;;;;;;;15.32;8.85;;;;;;;;;;5071383;28;20052;-64
2022/12/25 12:17:19;;;;;;;18.48;7.70;;;;;;;;;;5083386;28;20555;-64
2022/12/25 12:19:45;;;;;;;15.57;7.22;;;9.40;99.90;;;;;;5082027;28;20079;-64
2022/12/25 12:22:23;;;;;;;18.83;7.30;;;;;;;;;;5069666;28;20076;-64
2022/12/25 12:24:54;;;;;;;13.07;7.22;;;;;;;;;;5074515;28;20513;-64
2022/12/25 12:27:25;;;;;;;18.63;8.55;;;9.50;99.90;;;;;;5068940;28;20048;-64
2022/12/25 12:29:53;;;;;;;13.88;6.93;;;;;;;;;;5068834;28;20556;-64
2022/12/25 12:32:28;;;;;;;17.55;7.50;;;;;;;;;;5061375;28;20114;-63
2022/12/25 12:34:54;;;;;;;15.20;7.43;;;;;;;;;;5083810;28;20051;-64
2022/12/25 12:37:32;;;;;;;12.52;7.70;;;;;;;;;;5090140;28;20040;-64
2022/12/25 12:39:59;;;;;;;19.13;7.40;;;;;;;;;;5082565;28;20047;-64
2022/12/25 12:42:26;;;;;;;14.35;6.95;;;;;;;;;;5101016;28;20043;-64
2022/12/25 12:44:53;;;;;;;15.95;6.95;;;;;;;;;;5084365;28;20039;-64
2022/12/25 12:47:39;;;;;;;13.98;6.50;;;9.50;99.90;;;;;;5069700;28;20425;-65
2022/12/25 12:50:40;;;;;;;11.95;7.22;;;9.70;99.90;;;;;;5087054;28;20028;-64
2022/12/25 12:53:15;;;;;;;12.93;6.53;;;;;;;;;;5023857;28;20036;-63
2022/12/25 12:55:41;;;;;;;12.75;6.88;;;;;;;;;;5064357;28;20517;-63
2022/12/25 12:58:22;;;;;;;12.30;6.88;;;9.80;99.90;;;;;;5059189;28;20048;-64
2022/12/25 13:01:02;;;;;;;16.35;7.28;;;;;;;;;;5088198;28;20092;-63
2022/12/25 13:03:28;;;;;;;12.60;6.72;;;;;;;;;;5091142;28;20055;-62
2022/12/25 13:06:07;;;;;;;20.00;8.20;;;9.90;99.90;;;;;;5094855;28;20044;-63
2022/12/25 13:08:41;;;;;;;13.82;8.20;;;9.70;99.90;;;;;;5091272;28;20078;-63
2022/12/25 13:11:22;;;;;;;14.30;8.75;;;;;;;;;;5080259;28;20502;-63
2022/12/25 13:13:48;;;;;;;11.25;6.97;;;;;;;;;;5090536;28;20401;-63
2022/12/25 13:16:35;;;;;;;15.27;7.00;;;;;;;;;;5082323;28;20075;-63
2022/12/25 13:19:11;;;;;;;15.25;8.05;;;9.60;99.90;;;;;;5093908;28;20047;-62
2022/12/25 13:21:37;;;;;;;18.17;7.35;;;9.70;99.90;;;;;;5095880;28;20252;-64
2022/12/25 13:24:07;;;;;;;12.70;7.70;;;;;;;;;;5077414;28;20039;-64
2022/12/25 13:26:34;;;;;;;13.55;7.85;;;;;;;;;;5074163;28;20052;-61
2022/12/25 13:29:00;;;;;;;15.80;7.60;;;;;;;;;;5071045;28;20086;-63
2022/12/25 13:31:28;;;;;;;17.33;8.60;;;9.50;99.90;;;;;;5089506;28;20048;-63
2022/12/25 13:33:53;;;;;;;16.02;8.35;;;;;;;;;;5088472;28;20483;-64
2022/12/25 13:36:19;;;;;;;16.30;8.23;;;;;;;;;;5086020;28;20047;-63
2022/12/25 13:38:47;;;;;;;12.73;7.93;;;9.70;99.90;;;;;;5085876;28;20040;-63
2022/12/25 13:44:23;;;;;;;15.27;8.10;;;9.60;99.90;;;;;;5085716;28;20151;-62
2022/12/25 13:46:49;;;;;;;14.70;9.33;;;;;;;;;;5086367;28;20046;-62
2022/12/25 13:49:17;;;;;;;15.38;9.93;;;;;;;;;;5086099;28;20462;-63
2022/12/25 13:51:42;;;;;;;16.10;10.75;;;9.60;99.90;;;;;;5067973;28;20044;-63
2022/12/25 13:54:10;;;;;;;16.40;10.07;;;;;;;;;;5085395;28;20908;-62
2022/12/25 13:56:36;;;;;;;19.95;9.55;;;;;;;;;;5067137;28;20044;-62
2022/12/25 13:59:03;;;;;;;20.25;11.10;;;;;;;;;;5085380;28;20036;-63
2022/12/25 14:01:29;;;;;;;22.27;10.55;;;;;;;;;;5068098;28;20051;-62
2022/12/25 14:03:56;;;;;;;17.15;10.82;;;;;;;;;;5085644;28;20044;-64
2022/12/25 14:06:29;;;;;;;20.83;11.25;;;;;;;;;;5073530;28;20646;-64
2022/12/25 14:08:55;;;;;;;22.60;11.70;;;;;;;;;;5097103;28;20450;-64
2022/12/25 14:11:23;;;;;;;22.38;12.35;;;9.50;99.90;;;;;;5083339;28;20048;-64
2022/12/25 14:13:52;;;;;;;22.55;12.43;;;;;;;;;;5086254;28;20489;-64
2022/12/25 14:16:19;;;;;;;19.02;12.20;;;9.50;99.90;;;;;;5102612;28;20083;-64
2022/12/25 14:18:57;;;;;;;19.73;12.13;;;9.50;99.90;;;;;;5089623;28;20062;-63
2022/12/25 14:21:26;;;;;;;18.90;12.25;;;;;;;;;;5103069;28;20417;-64
2022/12/25 14:23:52;;;;;;;22.15;13.05;;;;;;;;;;5105635;28;20046;-62
2022/12/25 14:26:21;;;;;;;20.10;12.20;;;9.50;99.90;;;;;;5101986;28;20044;-63
2022/12/25 14:29:08;;;;;;;23.10;13.18;;;;;;;;;;5089361;28;20100;-63
2022/12/25 14:31:34;;;;;;;25.83;13.55;;;;;;;;;;5076665;28;20048;-62
2022/12/25 14:34:05;;;;;;;21.42;13.20;;;;;;;;;;5076943;28;20048;-62
2022/12/25 14:36:32;;;;;;;21.75;13.70;;;;;;;;;;5078427;28;20054;-63
2022/12/25 14:38:59;;;;;;;22.83;14.15;;;;;;;;;;5087442;28;20035;-64
2022/12/25 14:41:36;;;;;;;19.55;12.95;;;;;;;;;;5067671;28;20048;-63
2022/12/25 14:44:05;;;;;;;24.20;14.65;;;;;;;;;;5082734;28;20040;-63
2022/12/25 14:46:32;;;;;;;21.23;13.57;;;;;;;;;;5068533;28;20056;-62
2022/12/25 14:49:02;;;;;;;27.48;15.13;;;;;;;;;;5068983;28;20040;-63
2022/12/25 14:51:29;;;;;;;28.08;14.50;;;9.60;99.90;;;;;;5048107;28;20106;-64
2022/12/25 14:53:57;;;;;;;26.35;14.65;;;;;;;;;;5067538;28;20383;-64
2022/12/25 14:56:24;;;;;;;25.30;14.95;;;9.60;99.90;;;;;;5083125;28;20576;-62
2022/12/25 14:58:53;;;;;;;27.48;15.82;;;;;;;;;;5069401;28;20099;-64
2022/12/25 15:01:27;;;;;;;26.20;15.68;;;;;;;;;;5067514;28;20157;-64
2022/12/25 15:04:03;;;;;;;26.90;15.88;;;;;;;;;;5066973;28;20044;-63
2022/12/25 15:06:29;;;;;;;29.08;16.52;;;9.40;99.90;;;;;;5062248;28;20045;-64
2022/12/25 15:09:06;;;;;;;28.27;17.20;;;;;;;;;;5063210;28;20043;-62
2022/12/25 15:11:31;;;;;;;25.98;16.98;;;9.50;99.90;;;;;;5064179;28;20049;-64
2022/12/25 15:13:58;;;;;;;29.05;17.42;;;;;;;;;;5066863;28;20036;-63
2022/12/25 15:16:25;;;;;;;33.80;18.48;;;;;;;;;;5066992;28;20098;-63
2022/12/25 15:18:52;;;;;;;31.65;17.02;;;9.50;99.90;;;;;;5068198;28;20637;-62
2022/12/25 15:21:31;;;;;;;27.90;17.38;;;;;;;;;;5068272;28;20468;-62
2022/12/25 15:23:58;;;;;;;28.80;17.90;;;;;;;;;;5068068;28;20106;-62
2022/12/25 15:26:28;;;;;;;28.05;16.30;;;;;;;;;;5066113;28;20080;-62
2022/12/25 15:28:54;;;;;;;29.65;17.60;;;;;;;;;;5072082;28;20039;-62
2022/12/25 15:31:25;;;;;;;28.52;18.33;;;;;;;;;;5077071;28;20140;-63
2022/12/25 15:33:51;;;;;;;28.85;17.80;;;;;;;;;;5095212;28;20458;-63
2022/12/25 15:36:17;;;;;;;29.95;17.92;;;9.20;99.90;;;;;;5088710;28;20072;-63
2022/12/25 15:38:43;;;;;;;24.35;16.52;;;;;;;;;;5088002;28;20177;-65
2022/12/25 15:42:09;;;;;;;29.42;17.85;;;;;;;;;;5069965;28;20431;-62
2022/12/25 15:43:59;;;;;;;28.63;17.52;;;;;;;;;;5083744;28;20121;-63
2022/12/25 15:46:25;;;;;;;25.70;16.42;;;;;;;;;;5070600;28;20044;-62
2022/12/25 15:48:51;;;;;;;25.38;16.05;;;;;;;;;;5073661;28;20573;-61